sensor_id;sensor_type;location;lat;lon;timestamp;P1;durP1;ratioP1;P2;durP2;ratioP2
22565;SDS011;11449;51.330;19.378;2023-06-26T00:03:27;11.30;;;7.60;;
22565;SDS011;11449;51.330;19.378;2023-06-26T00:08:45;12.90;;;8.20;;
22565;SDS011;11449;51.330;19.378;2023-06-26T00:13:57;12.00;;;8.20;;
22565;SDS011;11449;51.330;19.378;2023-06-26T00:19:21;15.60;;;8.50;;
22565;SDS011;11449;51.330;19.378;2023-06-26T00:24:46;11.70;;;7.90;;
22565;SDS011;11449;51.330;19.378;2023-06-26T00:30:04;12.50;;;8.40;;
22565;SDS011;11449;51.330;19.378;2023-06-26T00:35:38;46.80;;;22.50;;
22565;SDS011;11449;51.330;19.378;2023-06-26T00:40:49;28.20;;;14.60;;
22565;SDS011;11449;51.330;19.378;2023-06-26T00:46:03;14.40;;;8.50;;
22565;SDS011;11449;51.330;19.378;2023-06-26T00:51:17;12.50;;;8.10;;
22565;SDS011;11449;51.330;19.378;2023-06-26T00:56:31;11.20;;;8.20;;
22565;SDS011;11449;51.330;19.378;2023-06-26T01:01:49;9.90;;;7.00;;
22565;SDS011;11449;51.330;19.378;2023-06-26T01:07:02;12.70;;;8.10;;
22565;SDS011;11449;51.330;19.378;2023-06-26T01:12:13;14.60;;;9.10;;
22565;SDS011;11449;51.330;19.378;2023-06-26T01:17:27;12.40;;;8.00;;
22565;SDS011;11449;51.330;19.378;2023-06-26T01:27:59;12.50;;;8.20;;
22565;SDS011;11449;51.330;19.378;2023-06-26T01:33:11;11.10;;;7.30;;
22565;SDS011;11449;51.330;19.378;2023-06-26T01:38:25;10.80;;;6.80;;
22565;SDS011;11449;51.330;19.378;2023-06-26T01:54:15;9.20;;;6.70;;
22565;SDS011;11449;51.330;19.378;2023-06-26T01:59:30;9.90;;;6.30;;
22565;SDS011;11449;51.330;19.378;2023-06-26T02:04:42;13.50;;;6.70;;
22565;SDS011;11449;51.330;19.378;2023-06-26T02:09:58;10.40;;;6.80;;
22565;SDS011;11449;51.330;19.378;2023-06-26T02:15:09;11.60;;;7.10;;
22565;SDS011;11449;51.330;19.378;2023-06-26T02:20:27;10.40;;;7.50;;
22565;SDS011;11449;51.330;19.378;2023-06-26T02:25:45;11.00;;;7.80;;
22565;SDS011;11449;51.330;19.378;2023-06-26T02:31:01;12.10;;;7.60;;
22565;SDS011;11449;51.330;19.378;2023-06-26T02:36:13;10.90;;;7.90;;
22565;SDS011;11449;51.330;19.378;2023-06-26T02:41:28;13.50;;;8.50;;
22565;SDS011;11449;51.330;19.378;2023-06-26T02:46:49;9.30;;;7.10;;
22565;SDS011;11449;51.330;19.378;2023-06-26T02:52:04;10.10;;;6.50;;
22565;SDS011;11449;51.330;19.378;2023-06-26T02:57:16;10.30;;;6.40;;
22565;SDS011;11449;51.330;19.378;2023-06-26T03:02:27;9.70;;;6.70;;
22565;SDS011;11449;51.330;19.378;2023-06-26T03:07:36;11.30;;;6.80;;
22565;SDS011;11449;51.330;19.378;2023-06-26T03:12:55;8.00;;;6.10;;
22565;SDS011;11449;51.330;19.378;2023-06-26T03:18:10;9.30;;;6.40;;
22565;SDS011;11449;51.330;19.378;2023-06-26T03:23:23;10.70;;;7.40;;
22565;SDS011;11449;51.330;19.378;2023-06-26T03:28:50;9.60;;;7.00;;
22565;SDS011;11449;51.330;19.378;2023-06-26T03:34:12;13.80;;;9.10;;
22565;SDS011;11449;51.330;19.378;2023-06-26T03:39:24;9.70;;;7.40;;
22565;SDS011;11449;51.330;19.378;2023-06-26T03:44:39;10.40;;;7.10;;
22565;SDS011;11449;51.330;19.378;2023-06-26T03:49:53;12.50;;;7.30;;
22565;SDS011;11449;51.330;19.378;2023-06-26T03:55:05;11.70;;;8.10;;
22565;SDS011;11449;51.330;19.378;2023-06-26T04:00:22;16.10;;;9.30;;
22565;SDS011;11449;51.330;19.378;2023-06-26T04:05:34;19.00;;;9.20;;
22565;SDS011;11449;51.330;19.378;2023-06-26T04:10:46;20.60;;;9.40;;
22565;SDS011;11449;51.330;19.378;2023-06-26T04:15:52;14.50;;;9.00;;
22565;SDS011;11449;51.330;19.378;2023-06-26T04:21:08;20.20;;;10.10;;
22565;SDS011;11449;51.330;19.378;2023-06-26T04:26:24;26.70;;;12.20;;
22565;SDS011;11449;51.330;19.378;2023-06-26T04:31:35;25.90;;;10.30;;
22565;SDS011;11449;51.330;19.378;2023-06-26T04:36:47;32.70;;;10.60;;
22565;SDS011;11449;51.330;19.378;2023-06-26T04:42:01;40.90;;;11.00;;
22565;SDS011;11449;51.330;19.378;2023-06-26T04:47:15;58.70;;;15.80;;
22565;SDS011;11449;51.330;19.378;2023-06-26T04:52:27;135.20;;;77.40;;
22565;SDS011;11449;51.330;19.378;2023-06-26T04:57:50;882.90;;;818.50;;
22565;SDS011;11449;51.330;19.378;2023-06-26T05:03:04;965.10;;;891.80;;
22565;SDS011;11449;51.330;19.378;2023-06-26T05:08:22;724.80;;;668.10;;
22565;SDS011;11449;51.330;19.378;2023-06-26T05:13:31;65.80;;;38.10;;
22565;SDS011;11449;51.330;19.378;2023-06-26T05:18:42;17.30;;;8.80;;
22565;SDS011;11449;51.330;19.378;2023-06-26T05:23:57;17.30;;;8.70;;
22565;SDS011;11449;51.330;19.378;2023-06-26T05:29:17;21.10;;;9.20;;
22565;SDS011;11449;51.330;19.378;2023-06-26T05:34:26;20.80;;;9.20;;
22565;SDS011;11449;51.330;19.378;2023-06-26T05:39:40;17.50;;;8.50;;
22565;SDS011;11449;51.330;19.378;2023-06-26T05:44:50;15.60;;;8.80;;
22565;SDS011;11449;51.330;19.378;2023-06-26T05:50:03;18.70;;;8.30;;
22565;SDS011;11449;51.330;19.378;2023-06-26T05:55:22;17.10;;;8.80;;
22565;SDS011;11449;51.330;19.378;2023-06-26T06:00:33;21.30;;;8.00;;
22565;SDS011;11449;51.330;19.378;2023-06-26T06:05:51;18.00;;;9.60;;
22565;SDS011;11449;51.330;19.378;2023-06-26T06:11:02;16.30;;;9.30;;
22565;SDS011;11449;51.330;19.378;2023-06-26T06:16:12;17.00;;;8.30;;
22565;SDS011;11449;51.330;19.378;2023-06-26T06:21:23;14.80;;;9.00;;
22565;SDS011;11449;51.330;19.378;2023-06-26T06:26:33;15.30;;;9.00;;
22565;SDS011;11449;51.330;19.378;2023-06-26T06:31:46;17.50;;;8.90;;
22565;SDS011;11449;51.330;19.378;2023-06-26T06:36:59;15.60;;;8.80;;
22565;SDS011;11449;51.330;19.378;2023-06-26T06:42:13;14.10;;;8.30;;
22565;SDS011;11449;51.330;19.378;2023-06-26T06:47:29;12.20;;;7.70;;
22565;SDS011;11449;51.330;19.378;2023-06-26T06:52:52;17.90;;;7.00;;
22565;SDS011;11449;51.330;19.378;2023-06-26T06:58:04;8.40;;;5.10;;
22565;SDS011;11449;51.330;19.378;2023-06-26T07:03:17;8.30;;;5.50;;
22565;SDS011;11449;51.330;19.378;2023-06-26T07:08:28;6.40;;;5.30;;
22565;SDS011;11449;51.330;19.378;2023-06-26T07:13:37;6.80;;;4.30;;
22565;SDS011;11449;51.330;19.378;2023-06-26T07:18:50;6.00;;;4.70;;
22565;SDS011;11449;51.330;19.378;2023-06-26T07:24:07;5.40;;;4.70;;
22565;SDS011;11449;51.330;19.378;2023-06-26T07:29:19;6.30;;;4.70;;
22565;SDS011;11449;51.330;19.378;2023-06-26T07:34:43;6.80;;;4.60;;
22565;SDS011;11449;51.330;19.378;2023-06-26T07:39:59;5.30;;;4.10;;
22565;SDS011;11449;51.330;19.378;2023-06-26T07:45:08;5.50;;;4.60;;
22565;SDS011;11449;51.330;19.378;2023-06-26T07:50:26;5.50;;;4.90;;
22565;SDS011;11449;51.330;19.378;2023-06-26T07:55:49;6.50;;;4.50;;
22565;SDS011;11449;51.330;19.378;2023-06-26T08:01:00;5.30;;;4.70;;
22565;SDS011;11449;51.330;19.378;2023-06-26T08:06:12;7.00;;;5.50;;
22565;SDS011;11449;51.330;19.378;2023-06-26T08:11:34;5.50;;;4.70;;
22565;SDS011;11449;51.330;19.378;2023-06-26T08:16:50;6.30;;;4.90;;
22565;SDS011;11449;51.330;19.378;2023-06-26T08:22:03;5.90;;;4.70;;
22565;SDS011;11449;51.330;19.378;2023-06-26T08:27:14;8.30;;;5.00;;
22565;SDS011;11449;51.330;19.378;2023-06-26T08:32:25;6.60;;;4.90;;
22565;SDS011;11449;51.330;19.378;2023-06-26T08:37:35;6.90;;;4.60;;
22565;SDS011;11449;51.330;19.378;2023-06-26T08:42:50;6.80;;;4.30;;
22565;SDS011;11449;51.330;19.378;2023-06-26T08:48:08;5.90;;;4.60;;
22565;SDS011;11449;51.330;19.378;2023-06-26T08:59:20;5.20;;;4.40;;
22565;SDS011;11449;51.330;19.378;2023-06-26T09:04:31;9.80;;;5.10;;
22565;SDS011;11449;51.330;19.378;2023-06-26T09:09:45;6.90;;;4.70;;
22565;SDS011;11449;51.330;19.378;2023-06-26T09:14:56;5.30;;;4.50;;
22565;SDS011;11449;51.330;19.378;2023-06-26T09:20:08;6.30;;;3.80;;
22565;SDS011;11449;51.330;19.378;2023-06-26T09:25:20;4.90;;;4.10;;
22565;SDS011;11449;51.330;19.378;2023-06-26T09:30:36;6.60;;;4.60;;
22565;SDS011;11449;51.330;19.378;2023-06-26T09:35:46;4.80;;;4.30;;
22565;SDS011;11449;51.330;19.378;2023-06-26T09:40:51;4.70;;;4.30;;
22565;SDS011;11449;51.330;19.378;2023-06-26T09:46:03;5.10;;;4.10;;
22565;SDS011;11449;51.330;19.378;2023-06-26T09:51:15;7.00;;;4.70;;
22565;SDS011;11449;51.330;19.378;2023-06-26T09:56:38;4.30;;;3.90;;
22565;SDS011;11449;51.330;19.378;2023-06-26T10:01:58;5.20;;;3.90;;
22565;SDS011;11449;51.330;19.378;2023-06-26T10:07:15;4.30;;;3.90;;
22565;SDS011;11449;51.330;19.378;2023-06-26T10:12:29;6.60;;;4.60;;
22565;SDS011;11449;51.330;19.378;2023-06-26T10:17:39;5.00;;;4.40;;
22565;SDS011;11449;51.330;19.378;2023-06-26T10:22:56;20.00;;;8.10;;
22565;SDS011;11449;51.330;19.378;2023-06-26T10:28:08;4.90;;;4.40;;
22565;SDS011;11449;51.330;19.378;2023-06-26T10:33:20;6.40;;;4.40;;
22565;SDS011;11449;51.330;19.378;2023-06-26T10:38:51;19.90;;;6.50;;
22565;SDS011;11449;51.330;19.378;2023-06-26T10:44:10;6.10;;;5.30;;
22565;SDS011;11449;51.330;19.378;2023-06-26T10:49:25;5.50;;;4.20;;
22565;SDS011;11449;51.330;19.378;2023-06-26T10:54:39;6.90;;;4.50;;
22565;SDS011;11449;51.330;19.378;2023-06-26T10:59:49;8.20;;;4.70;;
22565;SDS011;11449;51.330;19.378;2023-06-26T11:05:29;6.30;;;4.20;;
22565;SDS011;11449;51.330;19.378;2023-06-26T11:10:50;7.70;;;5.10;;
22565;SDS011;11449;51.330;19.378;2023-06-26T11:16:06;9.40;;;5.50;;
22565;SDS011;11449;51.330;19.378;2023-06-26T11:21:18;11.30;;;6.70;;
22565;SDS011;11449;51.330;19.378;2023-06-26T11:26:40;10.70;;;6.20;;
22565;SDS011;11449;51.330;19.378;2023-06-26T11:31:58;6.10;;;4.80;;
22565;SDS011;11449;51.330;19.378;2023-06-26T11:37:12;18.70;;;6.70;;
22565;SDS011;11449;51.330;19.378;2023-06-26T11:42:23;616.00;;;567.40;;
22565;SDS011;11449;51.330;19.378;2023-06-26T11:47:35;6.00;;;5.20;;
22565;SDS011;11449;51.330;19.378;2023-06-26T11:52:55;6.60;;;5.80;;
22565;SDS011;11449;51.330;19.378;2023-06-26T11:58:16;10.40;;;7.10;;
22565;SDS011;11449;51.330;19.378;2023-06-26T12:03:27;6.50;;;4.40;;
22565;SDS011;11449;51.330;19.378;2023-06-26T12:08:33;17.20;;;12.00;;
22565;SDS011;11449;51.330;19.378;2023-06-26T12:13:47;5.10;;;4.60;;
22565;SDS011;11449;51.330;19.378;2023-06-26T12:19:02;7.20;;;5.50;;
22565;SDS011;11449;51.330;19.378;2023-06-26T12:24:16;7.10;;;4.90;;
22565;SDS011;11449;51.330;19.378;2023-06-26T12:29:29;10.40;;;8.00;;
22565;SDS011;11449;51.330;19.378;2023-06-26T12:34:48;5.50;;;4.70;;
22565;SDS011;11449;51.330;19.378;2023-06-26T12:40:04;10.30;;;6.20;;
22565;SDS011;11449;51.330;19.378;2023-06-26T12:45:19;7.60;;;5.10;;
22565;SDS011;11449;51.330;19.378;2023-06-26T12:50:37;5.80;;;4.70;;
22565;SDS011;11449;51.330;19.378;2023-06-26T12:55:50;7.30;;;5.60;;
22565;SDS011;11449;51.330;19.378;2023-06-26T13:01:05;6.50;;;5.50;;
22565;SDS011;11449;51.330;19.378;2023-06-26T13:06:27;8.00;;;7.10;;
22565;SDS011;11449;51.330;19.378;2023-06-26T13:11:45;7.60;;;5.20;;
22565;SDS011;11449;51.330;19.378;2023-06-26T13:17:06;7.70;;;5.70;;
22565;SDS011;11449;51.330;19.378;2023-06-26T13:22:22;7.40;;;5.80;;
22565;SDS011;11449;51.330;19.378;2023-06-26T13:27:39;5.80;;;4.80;;
22565;SDS011;11449;51.330;19.378;2023-06-26T13:32:56;8.10;;;5.30;;
22565;SDS011;11449;51.330;19.378;2023-06-26T13:38:10;7.60;;;4.70;;
22565;SDS011;11449;51.330;19.378;2023-06-26T13:43:27;5.30;;;4.50;;
22565;SDS011;11449;51.330;19.378;2023-06-26T13:48:40;6.00;;;4.80;;
22565;SDS011;11449;51.330;19.378;2023-06-26T13:53:52;6.00;;;4.50;;
22565;SDS011;11449;51.330;19.378;2023-06-26T13:59:02;6.20;;;4.80;;
22565;SDS011;11449;51.330;19.378;2023-06-26T14:04:14;8.00;;;5.30;;
22565;SDS011;11449;51.330;19.378;2023-06-26T14:09:26;5.30;;;4.70;;
22565;SDS011;11449;51.330;19.378;2023-06-26T14:14:40;6.50;;;4.90;;
22565;SDS011;11449;51.330;19.378;2023-06-26T14:19:49;6.00;;;5.40;;
22565;SDS011;11449;51.330;19.378;2023-06-26T14:25:11;6.70;;;5.00;;
22565;SDS011;11449;51.330;19.378;2023-06-26T14:30:23;10.30;;;6.70;;
22565;SDS011;11449;51.330;19.378;2023-06-26T14:35:35;5.50;;;4.90;;
22565;SDS011;11449;51.330;19.378;2023-06-26T14:40:49;5.70;;;4.80;;
22565;SDS011;11449;51.330;19.378;2023-06-26T14:46:03;11.40;;;9.90;;
22565;SDS011;11449;51.330;19.378;2023-06-26T14:51:15;7.10;;;5.60;;
22565;SDS011;11449;51.330;19.378;2023-06-26T14:56:30;5.70;;;5.00;;
22565;SDS011;11449;51.330;19.378;2023-06-26T15:01:47;7.20;;;5.10;;
22565;SDS011;11449;51.330;19.378;2023-06-26T15:07:01;6.30;;;4.90;;
22565;SDS011;11449;51.330;19.378;2023-06-26T15:12:15;5.40;;;4.50;;
22565;SDS011;11449;51.330;19.378;2023-06-26T15:17:26;6.90;;;6.20;;
22565;SDS011;11449;51.330;19.378;2023-06-26T15:22:44;6.60;;;5.50;;
22565;SDS011;11449;51.330;19.378;2023-06-26T15:27:58;6.00;;;5.30;;
22565;SDS011;11449;51.330;19.378;2023-06-26T15:33:10;8.60;;;5.70;;
22565;SDS011;11449;51.330;19.378;2023-06-26T15:38:29;7.60;;;5.60;;
22565;SDS011;11449;51.330;19.378;2023-06-26T15:43:42;7.10;;;5.70;;
22565;SDS011;11449;51.330;19.378;2023-06-26T15:48:56;5.70;;;5.00;;
22565;SDS011;11449;51.330;19.378;2023-06-26T15:54:12;7.10;;;4.80;;
22565;SDS011;11449;51.330;19.378;2023-06-26T15:59:23;7.10;;;5.60;;
22565;SDS011;11449;51.330;19.378;2023-06-26T16:04:41;8.00;;;5.50;;
22565;SDS011;11449;51.330;19.378;2023-06-26T16:10:02;7.20;;;6.00;;
22565;SDS011;11449;51.330;19.378;2023-06-26T16:15:14;6.90;;;5.90;;
22565;SDS011;11449;51.330;19.378;2023-06-26T16:20:28;10.60;;;6.50;;
22565;SDS011;11449;51.330;19.378;2023-06-26T16:25:37;8.70;;;6.00;;
22565;SDS011;11449;51.330;19.378;2023-06-26T16:30:50;6.10;;;5.40;;
22565;SDS011;11449;51.330;19.378;2023-06-26T16:36:01;5.70;;;5.10;;
22565;SDS011;11449;51.330;19.378;2023-06-26T16:41:11;10.00;;;7.60;;
22565;SDS011;11449;51.330;19.378;2023-06-26T16:46:27;7.60;;;5.30;;
22565;SDS011;11449;51.330;19.378;2023-06-26T16:51:37;12.80;;;8.40;;
22565;SDS011;11449;51.330;19.378;2023-06-26T16:56:54;8.20;;;6.20;;
22565;SDS011;11449;51.330;19.378;2023-06-26T17:02:09;12.70;;;6.30;;
22565;SDS011;11449;51.330;19.378;2023-06-26T17:07:22;14.30;;;8.10;;
22565;SDS011;11449;51.330;19.378;2023-06-26T17:12:37;9.30;;;5.90;;
22565;SDS011;11449;51.330;19.378;2023-06-26T17:17:56;9.10;;;5.70;;
22565;SDS011;11449;51.330;19.378;2023-06-26T17:23:13;9.00;;;5.60;;
22565;SDS011;11449;51.330;19.378;2023-06-26T17:28:29;9.00;;;5.80;;
22565;SDS011;11449;51.330;19.378;2023-06-26T17:33:42;8.10;;;6.20;;
22565;SDS011;11449;51.330;19.378;2023-06-26T17:38:55;7.20;;;5.50;;
22565;SDS011;11449;51.330;19.378;2023-06-26T17:44:09;7.00;;;5.70;;
22565;SDS011;11449;51.330;19.378;2023-06-26T17:49:28;17.60;;;8.20;;
22565;SDS011;11449;51.330;19.378;2023-06-26T17:54:45;8.30;;;6.40;;
22565;SDS011;11449;51.330;19.378;2023-06-26T17:59:53;8.90;;;6.80;;
22565;SDS011;11449;51.330;19.378;2023-06-26T18:05:14;11.00;;;7.20;;
22565;SDS011;11449;51.330;19.378;2023-06-26T18:10:30;10.10;;;6.80;;
22565;SDS011;11449;51.330;19.378;2023-06-26T18:15:37;8.00;;;6.20;;
22565;SDS011;11449;51.330;19.378;2023-06-26T18:20:48;11.80;;;8.30;;
22565;SDS011;11449;51.330;19.378;2023-06-26T18:25:59;24.20;;;16.30;;
22565;SDS011;11449;51.330;19.378;2023-06-26T18:31:19;10.90;;;7.70;;
22565;SDS011;11449;51.330;19.378;2023-06-26T18:36:39;9.70;;;6.80;;
22565;SDS011;11449;51.330;19.378;2023-06-26T18:41:49;9.50;;;7.00;;
22565;SDS011;11449;51.330;19.378;2023-06-26T18:47:04;9.30;;;6.70;;
22565;SDS011;11449;51.330;19.378;2023-06-26T18:52:17;14.90;;;9.90;;
22565;SDS011;11449;51.330;19.378;2023-06-26T18:57:38;47.90;;;16.70;;
22565;SDS011;11449;51.330;19.378;2023-06-26T19:02:46;17.60;;;8.90;;
22565;SDS011;11449;51.330;19.378;2023-06-26T19:08:02;25.20;;;9.80;;
22565;SDS011;11449;51.330;19.378;2023-06-26T19:13:17;8.70;;;6.60;;
22565;SDS011;11449;51.330;19.378;2023-06-26T19:18:30;123.60;;;58.90;;
22565;SDS011;11449;51.330;19.378;2023-06-26T19:23:40;14.10;;;9.00;;
22565;SDS011;11449;51.330;19.378;2023-06-26T19:28:53;9.30;;;8.00;;
22565;SDS011;11449;51.330;19.378;2023-06-26T19:34:07;11.80;;;8.30;;
22565;SDS011;11449;51.330;19.378;2023-06-26T19:39:27;12.70;;;8.30;;
22565;SDS011;11449;51.330;19.378;2023-06-26T19:44:48;12.20;;;7.90;;
22565;SDS011;11449;51.330;19.378;2023-06-26T19:50:03;10.10;;;7.50;;
22565;SDS011;11449;51.330;19.378;2023-06-26T19:55:19;9.40;;;7.80;;
22565;SDS011;11449;51.330;19.378;2023-06-26T20:00:40;12.00;;;8.70;;
22565;SDS011;11449;51.330;19.378;2023-06-26T20:05:46;14.30;;;10.40;;
22565;SDS011;11449;51.330;19.378;2023-06-26T20:11:07;16.10;;;11.10;;
22565;SDS011;11449;51.330;19.378;2023-06-26T20:16:20;14.10;;;9.90;;
22565;SDS011;11449;51.330;19.378;2023-06-26T20:21:31;16.60;;;11.50;;
22565;SDS011;11449;51.330;19.378;2023-06-26T20:26:43;18.70;;;16.00;;
22565;SDS011;11449;51.330;19.378;2023-06-26T20:31:59;13.20;;;10.00;;
22565;SDS011;11449;51.330;19.378;2023-06-26T20:37:09;14.90;;;10.00;;
22565;SDS011;11449;51.330;19.378;2023-06-26T20:42:26;13.10;;;10.20;;
22565;SDS011;11449;51.330;19.378;2023-06-26T20:47:37;12.10;;;8.30;;
22565;SDS011;11449;51.330;19.378;2023-06-26T20:52:54;17.10;;;9.30;;
22565;SDS011;11449;51.330;19.378;2023-06-26T20:58:12;13.20;;;9.90;;
22565;SDS011;11449;51.330;19.378;2023-06-26T21:03:39;15.00;;;9.10;;
22565;SDS011;11449;51.330;19.378;2023-06-26T21:08:57;17.00;;;11.10;;
22565;SDS011;11449;51.330;19.378;2023-06-26T21:14:07;15.10;;;10.40;;
22565;SDS011;11449;51.330;19.378;2023-06-26T21:19:17;16.10;;;11.00;;
22565;SDS011;11449;51.330;19.378;2023-06-26T21:24:22;14.70;;;10.10;;
22565;SDS011;11449;51.330;19.378;2023-06-26T21:29:37;13.00;;;10.00;;
22565;SDS011;11449;51.330;19.378;2023-06-26T21:34:51;12.30;;;9.80;;
22565;SDS011;11449;51.330;19.378;2023-06-26T21:40:03;11.60;;;9.00;;
22565;SDS011;11449;51.330;19.378;2023-06-26T21:45:15;15.40;;;8.90;;
22565;SDS011;11449;51.330;19.378;2023-06-26T21:50:25;13.40;;;9.50;;
22565;SDS011;11449;51.330;19.378;2023-06-26T21:55:36;12.10;;;10.30;;
22565;SDS011;11449;51.330;19.378;2023-06-26T22:00:51;12.90;;;10.00;;
22565;SDS011;11449;51.330;19.378;2023-06-26T22:06:04;15.50;;;9.10;;
22565;SDS011;11449;51.330;19.378;2023-06-26T22:11:14;13.50;;;9.70;;
22565;SDS011;11449;51.330;19.378;2023-06-26T22:16:28;15.00;;;10.00;;
22565;SDS011;11449;51.330;19.378;2023-06-26T22:21:42;11.40;;;8.00;;
22565;SDS011;11449;51.330;19.378;2023-06-26T22:26:58;11.60;;;8.20;;
22565;SDS011;11449;51.330;19.378;2023-06-26T22:32:15;14.10;;;6.60;;
22565;SDS011;11449;51.330;19.378;2023-06-26T22:37:27;9.90;;;5.60;;
22565;SDS011;11449;51.330;19.378;2023-06-26T22:42:44;6.40;;;4.60;;
22565;SDS011;11449;51.330;19.378;2023-06-26T22:48:02;8.70;;;4.90;;
22565;SDS011;11449;51.330;19.378;2023-06-26T22:53:31;7.60;;;5.50;;
22565;SDS011;11449;51.330;19.378;2023-06-26T22:58:46;8.80;;;5.00;;
22565;SDS011;11449;51.330;19.378;2023-06-26T23:04:00;14.50;;;6.80;;
22565;SDS011;11449;51.330;19.378;2023-06-26T23:09:19;6.40;;;4.80;;
22565;SDS011;11449;51.330;19.378;2023-06-26T23:14:32;8.50;;;4.50;;
22565;SDS011;11449;51.330;19.378;2023-06-26T23:19:50;6.50;;;4.50;;
22565;SDS011;11449;51.330;19.378;2023-06-26T23:25:03;7.30;;;3.70;;
22565;SDS011;11449;51.330;19.378;2023-06-26T23:35:52;5.30;;;3.90;;
22565;SDS011;11449;51.330;19.378;2023-06-26T23:41:05;7.30;;;4.80;;
22565;SDS011;11449;51.330;19.378;2023-06-26T23:46:20;8.10;;;4.20;;
22565;SDS011;11449;51.330;19.378;2023-06-26T23:51:54;6.00;;;4.80;;
22565;SDS011;11449;51.330;19.378;2023-06-26T23:57:07;5.90;;;4.10;;
